Pagina principale
METAR-TAF:

METAR-TAF

Aeroporti :

Teodo, Montenegro

latitudine: 42-24N, longitudine: 018-44E, altezza: 5 m

Osservazione

Il bollettino è stato emesso 13 minuti fa, alle 11:30 UTC
Vento 6 kt da ovest/sud-ovest, variando fra sud/sud-est e ovest/nord-ovest
Temperature 23°C
Umidità 36%
Pressione 1026 hPa
Visibilità 10 km o più
nessuna nube inferiore a 1500 m e nessun cumulonembo

METAR: LYTV 191130Z 25006KT 160V300 CAVOK 23/07 Q1026 NOSIG

Ora: 13:43 (11:43 UTC)

Previsione

Il bollettino è stato emesso 6 ore e 43 minuti fa, alle 05:00 UTC
Previsione valida dal 19 alle 06 UTC al 20 alle 06 UTC
Vento 15 kt da nord/nord-est
Visibilità 10 km o più
nessuna nube inferiore a 1500 m e nessun cumulonembo
Evoluzione graduale
dal 19 alle 07 UTC al 19 alle 09 UTC
Vento 5 kt da ovest/sud-ovest

TAF: LYTV 190500Z 1906/2006 02015KT CAVOK TX26/1913Z TN15/2004Z BECMG 1907/1909 24005KT

Osservazioni e previsioni meteorologiche di più di 4000 aeroporti (messaggi METAR e TAF).

Le stazioni disponibili sono rappresentate dai dischi gialli e rossi sulla carta.

Puntare il mouse per vedere il nome della stazione.

Clicca sopra per visualizzare le osservazioni e previsioni meteorologiche.

Per cambiare la mappa : fare clic sui pulsanti verdi con una croce nera per ingrandire, il pulsante verde con un trattino per diminuire, o sulla freccia verde per le mappe adiacenti.


METAR-TAF: